CCA9755 ZYHB-ZSYA
Flight info
| Callsign | CCA9755 |
|---|---|
| Flight time | N/A |
| Altitude | 35100 |
| Route | DUK18D DUKIR W655 NIMEM W205 NULRA A588 UDETI W106 MAKNO W5 TAO W174 XDX DCT MABEB DCT GURIL DCT RUXEL W178 LAGAL A593 NIXEM NIX92A |
| Aircraft | A20N/M-SDE2E3FGHIRWXY/LB1 |
Departure
| Time | 2026-05-06 07:53 |
|---|---|
| Airport | Harbin Taiping International Airport (ZYHB) |
Arrival
| Time | N/A |
|---|---|
| Airport | Yangzhou Taizhou Airport (ZSYA) |
| Time | Latitude | Longitude | Altitude | Speed | Heading |
|---|---|---|---|---|---|
| 2026-05-06 07:25 | 45.61847 | 126.23497 | 509 ft | 0 kts | 322° |
| 2026-05-06 07:38 | 45.61843 | 126.23501 | 509 ft | 3 kts | 322° |
| 2026-05-06 07:39 | 45.61823 | 126.23525 | 509 ft | 3 kts | 322° |
| 2026-05-06 07:39 | 45.61801 | 126.23545 | 509 ft | 3 kts | 339° |
| 2026-05-06 07:39 | 45.61778 | 126.23541 | 509 ft | 3 kts | 33° |
| 2026-05-06 07:39 | 45.61770 | 126.23530 | 509 ft | 0 kts | 53° |
| 2026-05-06 07:42 | 45.61771 | 126.23531 | 509 ft | 0 kts | 53° |
| 2026-05-06 07:43 | 45.61773 | 126.23534 | 509 ft | 1 kts | 53° |
| 2026-05-06 07:43 | 45.61779 | 126.23555 | 509 ft | 3 kts | 83° |
| 2026-05-06 07:43 | 45.61766 | 126.23592 | 509 ft | 5 kts | 127° |
| 2026-05-06 07:43 | 45.61739 | 126.23641 | 509 ft | 7 kts | 129° |
| 2026-05-06 07:44 | 45.61702 | 126.23701 | 509 ft | 8 kts | 128° |
| 2026-05-06 07:44 | 45.61686 | 126.23785 | 509 ft | 9 kts | 59° |
| 2026-05-06 07:44 | 45.61745 | 126.23859 | 509 ft | 12 kts | 38° |
| 2026-05-06 07:44 | 45.61821 | 126.23949 | 509 ft | 15 kts | 39° |
| 2026-05-06 07:45 | 45.61909 | 126.24052 | 509 ft | 17 kts | 37° |
| 2026-05-06 07:45 | 45.62006 | 126.24163 | 509 ft | 18 kts | 39° |
| 2026-05-06 07:45 | 45.62103 | 126.24279 | 509 ft | 18 kts | 41° |
| 2026-05-06 07:45 | 45.62199 | 126.24399 | 509 ft | 18 kts | 39° |
| 2026-05-06 07:46 | 45.62298 | 126.24515 | 509 ft | 18 kts | 38° |
| 2026-05-06 07:46 | 45.62397 | 126.24632 | 509 ft | 18 kts | 39° |
| 2026-05-06 07:46 | 45.62475 | 126.24724 | 509 ft | 9 kts | 39° |
| 2026-05-06 07:46 | 45.62479 | 126.24794 | 509 ft | 8 kts | 119° |
| 2026-05-06 07:47 | 45.62484 | 126.24872 | 509 ft | 9 kts | 46° |
| 2026-05-06 07:47 | 45.62541 | 126.24937 | 509 ft | 11 kts | 37° |
| 2026-05-06 07:47 | 45.62606 | 126.25013 | 509 ft | 13 kts | 42° |
| 2026-05-06 07:47 | 45.62683 | 126.25107 | 509 ft | 15 kts | 39° |
| 2026-05-06 07:48 | 45.62774 | 126.25213 | 509 ft | 17 kts | 39° |
| 2026-05-06 07:48 | 45.62872 | 126.25329 | 509 ft | 19 kts | 39° |
| 2026-05-06 07:48 | 45.62981 | 126.25456 | 509 ft | 20 kts | 40° |
| 2026-05-06 07:48 | 45.63090 | 126.25586 | 509 ft | 20 kts | 38° |
| 2026-05-06 07:49 | 45.63204 | 126.25718 | 509 ft | 21 kts | 39° |
| 2026-05-06 07:49 | 45.63319 | 126.25852 | 509 ft | 21 kts | 39° |
| 2026-05-06 07:49 | 45.63434 | 126.25988 | 509 ft | 21 kts | 39° |
| 2026-05-06 07:49 | 45.63529 | 126.26099 | 509 ft | 14 kts | 37° |
| 2026-05-06 07:50 | 45.63586 | 126.26176 | 509 ft | 9 kts | 62° |
| 2026-05-06 07:50 | 45.63580 | 126.26253 | 509 ft | 3 kts | 125° |
| 2026-05-06 07:50 | 45.63579 | 126.26254 | 509 ft | 0 kts | 127° |
| 2026-05-06 07:50 | 45.63576 | 126.26260 | 509 ft | 1 kts | 127° |
| 2026-05-06 07:51 | 45.63555 | 126.26282 | 509 ft | 6 kts | 156° |
| 2026-05-06 07:51 | 45.63502 | 126.26292 | 509 ft | 8 kts | 175° |
| 2026-05-06 07:51 | 45.63440 | 126.26299 | 509 ft | 9 kts | 190° |
| 2026-05-06 07:51 | 45.63407 | 126.26269 | 509 ft | 0 kts | 219° |
| 2026-05-06 07:52 | 45.63395 | 126.26256 | 509 ft | 14 kts | 220° |
| 2026-05-06 07:52 | 45.63108 | 126.25918 | 509 ft | 88 kts | 219° |
| 2026-05-06 07:52 | 45.62470 | 126.25173 | 509 ft | 146 kts | 220° |
| 2026-05-06 07:53 | 45.61624 | 126.24143 | 798 ft | 167 kts | 221° |
| 2026-05-06 07:53 | 45.60724 | 126.23094 | 1433 ft | 169 kts | 220° |
| 2026-05-06 07:53 | 45.59824 | 126.22067 | 2153 ft | 167 kts | 221° |
| 2026-05-06 07:53 | 45.58904 | 126.20995 | 2637 ft | 176 kts | 221° |
| 2026-05-06 07:54 | 45.57917 | 126.19836 | 2994 ft | 193 kts | 221° |
| 2026-05-06 07:54 | 45.56846 | 126.18577 | 3362 ft | 209 kts | 221° |
| 2026-05-06 07:54 | 45.55687 | 126.17220 | 3794 ft | 223 kts | 221° |
| 2026-05-06 07:54 | 45.54396 | 126.15820 | 4127 ft | 246 kts | 209° |
| 2026-05-06 07:55 | 45.52718 | 126.15076 | 4590 ft | 265 kts | 191° |
| 2026-05-06 07:55 | 45.50855 | 126.14700 | 5159 ft | 278 kts | 188° |
| 2026-05-06 07:55 | 45.48926 | 126.14340 | 5959 ft | 282 kts | 188° |
| 2026-05-06 07:55 | 45.46991 | 126.13940 | 6765 ft | 285 kts | 189° |
| 2026-05-06 07:56 | 45.45030 | 126.13493 | 7558 ft | 288 kts | 190° |
| 2026-05-06 07:56 | 45.43044 | 126.13010 | 8346 ft | 291 kts | 191° |
| 2026-05-06 07:56 | 45.41068 | 126.12510 | 9124 ft | 294 kts | 191° |
| 2026-05-06 07:56 | 45.39046 | 126.11990 | 9854 ft | 298 kts | 191° |
| 2026-05-06 07:57 | 45.37008 | 126.11462 | 10514 ft | 304 kts | 192° |
| 2026-05-06 07:57 | 45.34866 | 126.10902 | 10892 ft | 320 kts | 192° |
| 2026-05-06 07:57 | 45.32613 | 126.10310 | 11205 ft | 338 kts | 192° |
| 2026-05-06 07:57 | 45.30261 | 126.09691 | 11561 ft | 352 kts | 192° |
| 2026-05-06 07:58 | 45.27835 | 126.09055 | 12181 ft | 357 kts | 192° |
| 2026-05-06 07:58 | 45.25412 | 126.08424 | 12894 ft | 360 kts | 193° |
| 2026-05-06 07:58 | 45.22964 | 126.07787 | 13576 ft | 362 kts | 193° |
| 2026-05-06 07:58 | 45.20464 | 126.07134 | 14259 ft | 364 kts | 194° |
| 2026-05-06 07:59 | 45.17974 | 126.06486 | 14962 ft | 365 kts | 194° |
| 2026-05-06 07:59 | 45.15487 | 126.05840 | 15637 ft | 367 kts | 195° |
| 2026-05-06 07:59 | 45.12999 | 126.05195 | 16336 ft | 366 kts | 197° |
| 2026-05-06 07:59 | 45.10496 | 126.04543 | 16993 ft | 367 kts | 198° |
| 2026-05-06 08:00 | 45.07997 | 126.03895 | 17646 ft | 367 kts | 199° |
| 2026-05-06 08:00 | 45.05508 | 126.03243 | 18283 ft | 367 kts | 199° |
| 2026-05-06 08:00 | 45.02977 | 126.02578 | 18884 ft | 367 kts | 199° |
| 2026-05-06 08:00 | 45.00475 | 126.01923 | 19474 ft | 368 kts | 200° |
| 2026-05-06 08:01 | 44.97978 | 126.01268 | 20115 ft | 366 kts | 200° |
| 2026-05-06 08:01 | 44.95486 | 126.00616 | 20761 ft | 364 kts | 200° |
| 2026-05-06 08:01 | 44.93676 | 126.00146 | 21253 ft | 362 kts | 200° |
| 2026-05-06 08:01 | 44.91208 | 125.99503 | 21859 ft | 361 kts | 200° |
| 2026-05-06 08:02 | 44.88739 | 125.98862 | 22409 ft | 362 kts | 200° |
| 2026-05-06 08:02 | 44.86242 | 125.98220 | 22854 ft | 365 kts | 200° |
| 2026-05-06 08:02 | 44.83755 | 125.97572 | 23200 ft | 370 kts | 200° |
| 2026-05-06 08:02 | 44.81215 | 125.96918 | 23740 ft | 371 kts | 200° |
| 2026-05-06 08:03 | 44.78667 | 125.96269 | 24184 ft | 373 kts | 200° |
| 2026-05-06 08:03 | 44.76097 | 125.95608 | 24514 ft | 378 kts | 200° |
| 2026-05-06 08:03 | 44.73529 | 125.94944 | 24943 ft | 381 kts | 201° |
| 2026-05-06 08:03 | 44.70931 | 125.94280 | 25363 ft | 382 kts | 200° |
| 2026-05-06 08:04 | 44.68290 | 125.93600 | 25713 ft | 386 kts | 200° |
| 2026-05-06 08:04 | 44.65651 | 125.92921 | 26090 ft | 388 kts | 201° |
| 2026-05-06 08:04 | 44.62997 | 125.92240 | 26425 ft | 391 kts | 201° |
| 2026-05-06 08:04 | 44.60315 | 125.91551 | 26758 ft | 394 kts | 201° |
| 2026-05-06 08:05 | 44.57608 | 125.90857 | 27098 ft | 397 kts | 201° |
| 2026-05-06 08:05 | 44.54884 | 125.90161 | 27451 ft | 398 kts | 201° |
| 2026-05-06 08:05 | 44.52191 | 125.89428 | 27823 ft | 394 kts | 205° |
| 2026-05-06 08:05 | 44.49578 | 125.88371 | 28225 ft | 389 kts | 208° |
| 2026-05-06 08:06 | 44.47022 | 125.87229 | 28651 ft | 387 kts | 208° |
| 2026-05-06 08:06 | 44.44453 | 125.86080 | 29064 ft | 386 kts | 208° |
| 2026-05-06 08:06 | 44.41895 | 125.84946 | 29416 ft | 386 kts | 208° |
| 2026-05-06 08:06 | 44.39362 | 125.83837 | 29752 ft | 386 kts | 209° |
| 2026-05-06 08:07 | 44.36785 | 125.82715 | 30109 ft | 385 kts | 209° |
| 2026-05-06 08:07 | 44.34243 | 125.81619 | 30420 ft | 385 kts | 209° |
| 2026-05-06 08:07 | 44.31706 | 125.80522 | 30724 ft | 384 kts | 209° |
| 2026-05-06 08:07 | 44.29131 | 125.79419 | 31055 ft | 383 kts | 209° |
| 2026-05-06 08:08 | 44.26613 | 125.78341 | 31301 ft | 384 kts | 210° |
| 2026-05-06 08:08 | 44.24056 | 125.77245 | 31554 ft | 384 kts | 210° |
| 2026-05-06 08:08 | 44.21484 | 125.76148 | 31807 ft | 385 kts | 210° |
| 2026-05-06 08:08 | 44.18952 | 125.75067 | 32031 ft | 386 kts | 210° |
| 2026-05-06 08:09 | 44.16373 | 125.73970 | 32277 ft | 386 kts | 210° |
| 2026-05-06 08:09 | 44.13827 | 125.72888 | 32513 ft | 386 kts | 210° |
| 2026-05-06 08:09 | 44.11231 | 125.71787 | 32675 ft | 388 kts | 210° |
| 2026-05-06 08:09 | 44.08656 | 125.70686 | 32835 ft | 390 kts | 210° |
| 2026-05-06 08:10 | 44.06058 | 125.69586 | 33011 ft | 392 kts | 210° |
| 2026-05-06 08:10 | 44.03447 | 125.68480 | 33188 ft | 393 kts | 210° |
| 2026-05-06 08:10 | 44.00853 | 125.67385 | 33373 ft | 394 kts | 210° |
| 2026-05-06 08:10 | 43.98247 | 125.66281 | 33553 ft | 394 kts | 210° |
| 2026-05-06 08:11 | 43.95629 | 125.65178 | 33722 ft | 395 kts | 211° |
| 2026-05-06 08:11 | 43.93002 | 125.64066 | 33821 ft | 397 kts | 210° |
| 2026-05-06 08:11 | 43.90331 | 125.62940 | 33977 ft | 398 kts | 211° |
| 2026-05-06 08:11 | 43.87706 | 125.61838 | 33983 ft | 400 kts | 211° |
| 2026-05-06 08:12 | 43.82371 | 125.59613 | 33992 ft | 400 kts | 210° |
| 2026-05-06 08:12 | 43.77038 | 125.57383 | 33991 ft | 400 kts | 210° |
| 2026-05-06 08:13 | 43.71730 | 125.55164 | 33992 ft | 400 kts | 210° |
| 2026-05-06 08:13 | 43.66367 | 125.52924 | 33987 ft | 402 kts | 210° |
| 2026-05-06 08:14 | 43.61051 | 125.50703 | 33985 ft | 402 kts | 210° |
| 2026-05-06 08:14 | 43.55701 | 125.48476 | 33983 ft | 401 kts | 210° |
| 2026-05-06 08:15 | 43.50363 | 125.46258 | 33982 ft | 400 kts | 210° |
| 2026-05-06 08:15 | 43.45060 | 125.44057 | 33978 ft | 399 kts | 210° |
| 2026-05-06 08:16 | 43.39761 | 125.41857 | 33978 ft | 399 kts | 210° |
| 2026-05-06 08:16 | 43.34479 | 125.39675 | 33978 ft | 398 kts | 210° |
| 2026-05-06 08:17 | 43.29140 | 125.37466 | 33980 ft | 400 kts | 210° |
| 2026-05-06 08:17 | 43.23806 | 125.35270 | 33979 ft | 400 kts | 210° |
| 2026-05-06 08:18 | 43.18511 | 125.33076 | 33980 ft | 400 kts | 210° |
| 2026-05-06 08:18 | 43.13191 | 125.30875 | 33980 ft | 400 kts | 210° |
| 2026-05-06 08:19 | 43.07864 | 125.28684 | 33978 ft | 400 kts | 209° |
| 2026-05-06 08:19 | 43.02515 | 125.26498 | 33980 ft | 403 kts | 210° |
| 2026-05-06 08:20 | 42.97188 | 125.24326 | 33982 ft | 403 kts | 209° |
| 2026-05-06 08:20 | 42.91809 | 125.22141 | 33976 ft | 402 kts | 210° |
| 2026-05-06 08:21 | 42.86482 | 125.19971 | 33967 ft | 401 kts | 210° |
| 2026-05-06 08:21 | 42.81287 | 125.17333 | 33986 ft | 396 kts | 216° |
| 2026-05-06 08:22 | 42.76354 | 125.14033 | 33984 ft | 400 kts | 219° |
| 2026-05-06 08:22 | 42.71341 | 125.10514 | 33965 ft | 409 kts | 219° |
| 2026-05-06 08:23 | 42.66305 | 125.07000 | 33973 ft | 409 kts | 219° |
| 2026-05-06 08:23 | 42.61231 | 125.03462 | 33964 ft | 411 kts | 219° |
| 2026-05-06 08:24 | 42.56172 | 124.99933 | 33969 ft | 411 kts | 219° |
| 2026-05-06 08:24 | 42.51061 | 124.96373 | 33976 ft | 412 kts | 218° |
| 2026-05-06 08:25 | 42.45963 | 124.92826 | 33979 ft | 412 kts | 218° |
| 2026-05-06 08:25 | 42.40904 | 124.89319 | 33956 ft | 411 kts | 218° |
| 2026-05-06 08:26 | 42.35825 | 124.85800 | 33967 ft | 412 kts | 218° |
| 2026-05-06 08:26 | 42.30744 | 124.82288 | 33970 ft | 412 kts | 218° |
| 2026-05-06 08:27 | 42.25635 | 124.78759 | 33976 ft | 413 kts | 218° |
| 2026-05-06 08:27 | 42.20535 | 124.75244 | 33974 ft | 412 kts | 218° |
| 2026-05-06 08:28 | 42.15422 | 124.71728 | 33982 ft | 412 kts | 218° |
| 2026-05-06 08:28 | 42.10351 | 124.68248 | 33980 ft | 412 kts | 218° |
| 2026-05-06 08:29 | 42.05268 | 124.64760 | 33977 ft | 412 kts | 218° |
| 2026-05-06 08:29 | 42.00106 | 124.61232 | 33981 ft | 415 kts | 218° |
| 2026-05-06 08:30 | 41.95130 | 124.57574 | 33983 ft | 408 kts | 221° |
| 2026-05-06 08:30 | 41.90207 | 124.53809 | 33993 ft | 409 kts | 221° |
| 2026-05-06 08:31 | 41.85251 | 124.50053 | 33978 ft | 410 kts | 220° |
| 2026-05-06 08:31 | 41.80283 | 124.46291 | 33986 ft | 409 kts | 220° |
| 2026-05-06 08:32 | 41.75349 | 124.42551 | 33978 ft | 410 kts | 220° |
| 2026-05-06 08:32 | 41.70365 | 124.38771 | 33978 ft | 411 kts | 220° |
| 2026-05-06 08:33 | 41.65439 | 124.35037 | 33977 ft | 411 kts | 221° |
| 2026-05-06 08:33 | 41.60477 | 124.31261 | 33975 ft | 411 kts | 220° |
| 2026-05-06 08:34 | 41.53052 | 124.25639 | 33980 ft | 411 kts | 220° |
| 2026-05-06 08:35 | 41.48071 | 124.21894 | 33975 ft | 410 kts | 220° |
| 2026-05-06 08:35 | 41.43109 | 124.18169 | 33980 ft | 411 kts | 220° |
| 2026-05-06 08:36 | 41.38112 | 124.14449 | 33976 ft | 414 kts | 219° |
| 2026-05-06 08:36 | 41.33074 | 124.10799 | 33980 ft | 412 kts | 219° |
| 2026-05-06 08:37 | 41.28025 | 124.07148 | 33982 ft | 413 kts | 219° |
| 2026-05-06 08:37 | 41.22977 | 124.03500 | 33984 ft | 412 kts | 219° |
| 2026-05-06 08:38 | 41.17959 | 123.99885 | 33985 ft | 413 kts | 219° |
| 2026-05-06 08:38 | 41.12909 | 123.96240 | 33983 ft | 414 kts | 219° |
| 2026-05-06 08:39 | 41.07887 | 123.92638 | 33978 ft | 410 kts | 219° |
| 2026-05-06 08:39 | 41.02866 | 123.89034 | 33978 ft | 412 kts | 219° |
| 2026-05-06 08:40 | 40.97839 | 123.85429 | 33975 ft | 413 kts | 219° |
| 2026-05-06 08:40 | 40.92798 | 123.81825 | 33970 ft | 413 kts | 219° |
| 2026-05-06 08:41 | 40.87751 | 123.78235 | 33970 ft | 411 kts | 219° |
| 2026-05-06 08:41 | 40.82707 | 123.74656 | 33977 ft | 411 kts | 219° |
| 2026-05-06 08:42 | 40.77700 | 123.70985 | 33974 ft | 412 kts | 220° |
| 2026-05-06 08:42 | 40.72729 | 123.67317 | 33980 ft | 413 kts | 220° |
| 2026-05-06 08:43 | 40.67714 | 123.63631 | 33973 ft | 412 kts | 219° |
| 2026-05-06 08:43 | 40.62707 | 123.59963 | 33982 ft | 413 kts | 219° |
| 2026-05-06 08:44 | 40.57687 | 123.56294 | 33976 ft | 413 kts | 220° |
| 2026-05-06 08:44 | 40.52681 | 123.52632 | 33973 ft | 413 kts | 219° |
| 2026-05-06 08:45 | 40.47680 | 123.48980 | 33978 ft | 412 kts | 219° |
| 2026-05-06 08:45 | 40.42663 | 123.45325 | 33975 ft | 412 kts | 219° |
| 2026-05-06 08:46 | 40.37659 | 123.41683 | 33976 ft | 413 kts | 219° |
| 2026-05-06 08:46 | 40.32618 | 123.38027 | 33984 ft | 413 kts | 219° |
| 2026-05-06 08:47 | 40.27613 | 123.34392 | 33982 ft | 414 kts | 218° |
| 2026-05-06 08:47 | 40.22575 | 123.30724 | 33978 ft | 415 kts | 218° |
| 2026-05-06 08:48 | 40.17549 | 123.27086 | 33977 ft | 413 kts | 218° |
| 2026-05-06 08:48 | 40.12479 | 123.23430 | 33974 ft | 415 kts | 218° |
| 2026-05-06 08:49 | 40.07454 | 123.19820 | 33968 ft | 415 kts | 218° |
| 2026-05-06 08:49 | 40.02391 | 123.16162 | 33961 ft | 416 kts | 218° |
| 2026-05-06 08:50 | 39.97391 | 123.12504 | 33966 ft | 415 kts | 218° |
| 2026-05-06 08:50 | 39.92344 | 123.08825 | 33961 ft | 415 kts | 218° |
| 2026-05-06 08:51 | 39.87293 | 123.05164 | 33959 ft | 417 kts | 218° |
| 2026-05-06 08:51 | 39.82247 | 123.01527 | 33955 ft | 417 kts | 218° |
| 2026-05-06 08:52 | 39.77156 | 122.97858 | 33951 ft | 418 kts | 218° |
| 2026-05-06 08:52 | 39.72109 | 122.94220 | 33952 ft | 416 kts | 218° |
| 2026-05-06 08:53 | 39.67050 | 122.90573 | 33944 ft | 418 kts | 218° |
| 2026-05-06 08:53 | 39.61953 | 122.86905 | 33946 ft | 419 kts | 218° |
| 2026-05-06 08:54 | 39.56879 | 122.83259 | 33939 ft | 419 kts | 217° |
| 2026-05-06 08:54 | 39.51787 | 122.79605 | 33944 ft | 418 kts | 217° |
| 2026-05-06 08:55 | 39.46732 | 122.75989 | 33940 ft | 418 kts | 218° |
| 2026-05-06 08:55 | 39.41627 | 122.72340 | 33935 ft | 420 kts | 218° |
| 2026-05-06 08:56 | 39.36510 | 122.68687 | 33934 ft | 419 kts | 217° |
| 2026-05-06 08:56 | 39.31406 | 122.65053 | 33935 ft | 421 kts | 218° |
| 2026-05-06 08:57 | 39.26330 | 122.61391 | 33930 ft | 418 kts | 219° |
| 2026-05-06 08:57 | 39.21403 | 122.57449 | 33929 ft | 416 kts | 220° |
| 2026-05-06 08:58 | 39.16516 | 122.53548 | 33928 ft | 417 kts | 220° |
| 2026-05-06 08:58 | 39.11579 | 122.49607 | 33925 ft | 418 kts | 220° |
| 2026-05-06 08:59 | 39.06636 | 122.45668 | 33921 ft | 418 kts | 220° |
| 2026-05-06 08:59 | 39.01694 | 122.41738 | 33920 ft | 419 kts | 220° |
| 2026-05-06 09:00 | 38.96753 | 122.37814 | 33918 ft | 420 kts | 220° |
| 2026-05-06 09:00 | 38.91765 | 122.33853 | 33921 ft | 419 kts | 219° |
| 2026-05-06 09:01 | 38.86826 | 122.29938 | 33917 ft | 420 kts | 219° |
| 2026-05-06 09:01 | 38.81863 | 122.26022 | 33921 ft | 421 kts | 219° |
| 2026-05-06 09:02 | 38.76918 | 122.22070 | 33917 ft | 415 kts | 223° |
| 2026-05-06 09:02 | 38.72610 | 122.17299 | 33927 ft | 405 kts | 233° |
| 2026-05-06 09:03 | 38.69273 | 122.11661 | 33934 ft | 394 kts | 244° |
| 2026-05-06 09:03 | 38.66930 | 122.05411 | 33933 ft | 389 kts | 253° |
| 2026-05-06 09:04 | 38.65373 | 121.98858 | 33934 ft | 387 kts | 256° |
| 2026-05-06 09:04 | 38.63885 | 121.92245 | 33927 ft | 387 kts | 256° |
| 2026-05-06 09:05 | 38.62411 | 121.85675 | 33924 ft | 387 kts | 256° |
| 2026-05-06 09:05 | 38.61140 | 121.80006 | 33929 ft | 387 kts | 256° |
| 2026-05-06 09:06 | 38.59703 | 121.73601 | 33920 ft | 388 kts | 256° |
| 2026-05-06 09:06 | 38.58206 | 121.66979 | 34066 ft | 390 kts | 256° |
| 2026-05-06 09:07 | 38.56710 | 121.60344 | 33799 ft | 390 kts | 256° |
| 2026-05-06 09:07 | 38.55959 | 121.57021 | 33559 ft | 391 kts | 256° |
| 2026-05-06 09:07 | 38.55203 | 121.53687 | 33337 ft | 393 kts | 256° |
| 2026-05-06 09:07 | 38.54447 | 121.50354 | 33136 ft | 394 kts | 256° |
| 2026-05-06 09:08 | 38.53691 | 121.47028 | 32923 ft | 395 kts | 256° |
| 2026-05-06 09:08 | 38.52927 | 121.43654 | 32712 ft | 395 kts | 256° |
| 2026-05-06 09:08 | 38.52156 | 121.40280 | 32510 ft | 396 kts | 256° |
| 2026-05-06 09:08 | 38.51390 | 121.36926 | 32306 ft | 398 kts | 256° |
| 2026-05-06 09:09 | 38.50619 | 121.33558 | 32106 ft | 399 kts | 255° |
| 2026-05-06 09:09 | 38.49842 | 121.30155 | 31933 ft | 400 kts | 255° |
| 2026-05-06 09:09 | 38.49070 | 121.26784 | 31915 ft | 400 kts | 255° |
| 2026-05-06 09:10 | 38.47362 | 121.20023 | 31909 ft | 401 kts | 251° |
| 2026-05-06 09:10 | 38.45179 | 121.13480 | 31896 ft | 405 kts | 247° |
| 2026-05-06 09:11 | 38.42500 | 121.07175 | 31889 ft | 406 kts | 242° |
| 2026-05-06 09:11 | 38.39525 | 121.01096 | 31892 ft | 407 kts | 242° |
| 2026-05-06 09:12 | 38.36520 | 120.94985 | 31891 ft | 406 kts | 241° |
| 2026-05-06 09:12 | 38.33507 | 120.88897 | 31889 ft | 406 kts | 242° |
| 2026-05-06 09:13 | 38.30513 | 120.82853 | 31893 ft | 406 kts | 241° |
| 2026-05-06 09:13 | 38.27067 | 120.77103 | 31880 ft | 412 kts | 233° |
| 2026-05-06 09:14 | 38.22960 | 120.72052 | 31882 ft | 414 kts | 226° |
| 2026-05-06 09:14 | 38.18292 | 120.67831 | 31878 ft | 415 kts | 218° |
| 2026-05-06 09:15 | 38.13204 | 120.64430 | 31878 ft | 416 kts | 214° |
| 2026-05-06 09:15 | 38.07941 | 120.61267 | 31875 ft | 420 kts | 210° |
| 2026-05-06 09:16 | 38.02362 | 120.58805 | 31861 ft | 430 kts | 204° |
| 2026-05-06 09:16 | 37.96499 | 120.57152 | 31863 ft | 437 kts | 198° |
| 2026-05-06 09:17 | 37.90435 | 120.56376 | 31859 ft | 436 kts | 192° |
| 2026-05-06 09:17 | 37.84441 | 120.55937 | 31857 ft | 432 kts | 193° |
| 2026-05-06 09:18 | 37.78433 | 120.55487 | 31853 ft | 431 kts | 192° |
| 2026-05-06 09:18 | 37.72448 | 120.55033 | 31865 ft | 432 kts | 192° |
| 2026-05-06 09:19 | 37.66445 | 120.54575 | 31870 ft | 430 kts | 193° |
| 2026-05-06 09:19 | 37.60509 | 120.53756 | 31893 ft | 430 kts | 195° |
| 2026-05-06 09:20 | 37.54573 | 120.52869 | 31916 ft | 431 kts | 196° |
| 2026-05-06 09:20 | 37.48627 | 120.51979 | 31942 ft | 431 kts | 195° |
| 2026-05-06 09:21 | 37.42647 | 120.51088 | 31947 ft | 431 kts | 195° |
| 2026-05-06 09:21 | 37.36693 | 120.50202 | 31928 ft | 430 kts | 196° |
| 2026-05-06 09:22 | 37.30743 | 120.49313 | 31923 ft | 431 kts | 195° |
| 2026-05-06 09:22 | 37.24812 | 120.48431 | 31915 ft | 431 kts | 195° |
| 2026-05-06 09:23 | 37.18872 | 120.47552 | 31910 ft | 429 kts | 195° |
| 2026-05-06 09:23 | 37.12912 | 120.46667 | 31918 ft | 430 kts | 196° |
| 2026-05-06 09:24 | 37.07006 | 120.45792 | 31921 ft | 431 kts | 195° |
| 2026-05-06 09:24 | 37.01054 | 120.44915 | 31925 ft | 431 kts | 195° |
| 2026-05-06 09:25 | 36.95092 | 120.44035 | 31920 ft | 430 kts | 195° |
| 2026-05-06 09:25 | 36.89169 | 120.43162 | 31924 ft | 432 kts | 195° |
| 2026-05-06 09:26 | 36.83190 | 120.42291 | 31930 ft | 431 kts | 195° |
| 2026-05-06 09:26 | 36.77252 | 120.41428 | 31923 ft | 433 kts | 196° |
| 2026-05-06 09:27 | 36.71240 | 120.40545 | 31928 ft | 434 kts | 195° |
| 2026-05-06 09:27 | 36.65282 | 120.39675 | 31930 ft | 432 kts | 196° |
| 2026-05-06 09:28 | 36.59296 | 120.38802 | 31928 ft | 434 kts | 195° |
| 2026-05-06 09:28 | 36.53306 | 120.37984 | 31922 ft | 437 kts | 193° |
| 2026-05-06 09:29 | 36.47194 | 120.37676 | 31929 ft | 441 kts | 190° |
| 2026-05-06 09:29 | 36.41057 | 120.37456 | 31932 ft | 441 kts | 191° |
| 2026-05-06 09:30 | 36.34931 | 120.37234 | 31928 ft | 441 kts | 190° |
| 2026-05-06 09:30 | 36.28832 | 120.36758 | 31940 ft | 434 kts | 195° |
| 2026-05-06 09:31 | 36.22935 | 120.35499 | 31937 ft | 431 kts | 200° |